Time;durP1;ratioP1;P1;durP2;ratioP2;P2;SDS_P1;SDS_P2;PMS_P1;PMS_P2;Temp;Humidity;BMP_temperature;BMP_pressure;BME280_temperature;BME280_humidity;BME280_pressure;Samples;Min_cycle;Max_cycle;Signal;HPM_P1;HPM_P2
2023/06/15 00:00:24;;;;;;;2.00;1.05;;;18.00;92.60;;;;;;5006287;28;20042;-70
2023/06/15 00:02:50;;;;;;;2.28;1.15;;;18.00;92.60;;;;;;4999197;28;20046;-70
2023/06/15 00:05:16;;;;;;;2.35;1.17;;;17.90;92.60;;;;;;4985841;28;20509;-70
2023/06/15 00:07:42;;;;;;;1.50;1.10;;;17.90;92.70;;;;;;5000338;28;20551;-70
2023/06/15 00:10:09;;;;;;;3.63;1.25;;;17.90;92.70;;;;;;5004815;28;20511;-71
2023/06/15 00:12:34;;;;;;;3.83;1.02;;;17.90;92.70;;;;;;5006393;28;20088;-71
2023/06/15 00:15:01;;;;;;;3.30;1.52;;;17.80;92.60;;;;;;5005570;28;20061;-71
2023/06/15 00:17:29;;;;;;;1.83;1.10;;;17.80;92.70;;;;;;5005328;28;20050;-70
2023/06/15 00:19:57;;;;;;;4.28;1.33;;;17.80;92.70;;;;;;5005554;28;20057;-70
2023/06/15 00:22:26;;;;;;;2.97;1.30;;;17.80;92.70;;;;;;5004399;28;20579;-70
2023/06/15 00:24:52;;;;;;;3.53;1.20;;;17.80;92.70;;;;;;5004931;28;20053;-70
2023/06/15 00:27:18;;;;;;;3.63;1.35;;;17.80;92.70;;;;;;5005831;28;20100;-70
2023/06/15 00:29:43;;;;;;;4.25;1.52;;;17.80;92.70;;;;;;5005653;28;20065;-70
2023/06/15 00:32:09;;;;;;;4.13;1.00;;;17.80;92.70;;;;;;5005981;28;20045;-70
2023/06/15 00:34:35;;;;;;;1.45;1.00;;;17.80;92.70;;;;;;5005129;28;20042;-71
2023/06/15 00:37:00;;;;;;;3.03;1.05;;;17.80;92.80;;;;;;5004315;28;20046;-71
2023/06/15 00:39:26;;;;;;;1.42;1.15;;;17.70;92.70;;;;;;5005193;28;20045;-70
2023/06/15 00:41:51;;;;;;;2.78;1.10;;;17.70;92.70;;;;;;5004473;28;20038;-70
2023/06/15 00:44:17;;;;;;;2.17;1.45;;;17.70;92.80;;;;;;5004003;28;20499;-71
2023/06/15 00:46:42;;;;;;;1.92;1.48;;;17.70;92.80;;;;;;5005532;28;20509;-71
2023/06/15 00:49:08;;;;;;;3.75;1.30;;;17.70;92.80;;;;;;5004658;28;20049;-71
2023/06/15 00:51:38;;;;;;;3.80;1.60;;;17.70;92.90;;;;;;5005970;28;20113;-71
2023/06/15 00:54:05;;;;;;;2.47;1.17;;;17.60;92.80;;;;;;5003774;28;20534;-71
2023/06/15 00:56:31;;;;;;;2.90;1.40;;;17.70;92.90;;;;;;5005534;28;20065;-71
2023/06/15 00:58:57;;;;;;;4.40;1.70;;;17.60;92.90;;;;;;5005648;28;20124;-70
2023/06/15 01:01:24;;;;;;;2.72;1.30;;;17.60;92.90;;;;;;5005249;28;20042;-70
2023/06/15 01:03:50;;;;;;;1.40;1.17;;;17.60;92.90;;;;;;5005649;28;20046;-70
2023/06/15 01:06:19;;;;;;;3.28;1.20;;;17.60;92.90;;;;;;5084047;23;20058;-70
2023/06/15 01:08:47;;;;;;;3.45;1.20;;;17.50;92.80;;;;;;5005087;28;20484;-70
2023/06/15 01:11:14;;;;;;;2.80;1.05;;;17.50;92.90;;;;;;5004952;28;20046;-71
2023/06/15 01:13:44;;;;;;;1.70;1.45;;;17.50;93.00;;;;;;5005059;28;20061;-70
2023/06/15 01:16:38;;;;;;;2.33;1.40;;;17.50;93.00;;;;;;5004726;28;20042;-70
2023/06/15 01:19:09;;;;;;;1.45;1.30;;;17.50;93.80;;;;;;5003726;28;20049;-70
2023/06/15 01:21:37;;;;;;;1.75;1.42;;;17.50;93.00;;;;;;5005029;28;20057;-70
2023/06/15 01:24:23;;;;;;;2.92;1.98;;;17.50;93.00;;;;;;5004614;28;20104;-71
2023/06/15 01:26:50;;;;;;;2.92;1.67;;;17.50;93.30;;;;;;5004993;28;20092;-70
2023/06/15 01:29:19;;;;;;;1.35;1.15;;;17.50;93.00;;;;;;5004751;28;20069;-70
2023/06/15 01:31:46;;;;;;;2.17;1.27;;;17.40;93.00;;;;;;5004895;28;20082;-71
2023/06/15 01:34:11;;;;;;;3.67;1.45;;;17.40;93.00;;;;;;5002565;28;20050;-71
2023/06/15 01:36:37;;;;;;;3.80;1.33;;;17.40;93.30;;;;;;5004728;28;20048;-71
2023/06/15 01:39:03;;;;;;;2.08;1.48;;;17.40;93.10;;;;;;5005085;28;20041;-71
2023/06/15 01:41:31;;;;;;;2.95;1.75;;;17.40;93.10;;;;;;5005427;28;20087;-70
2023/06/15 01:43:58;;;;;;;2.15;1.55;;;17.40;93.10;;;;;;5004058;28;20384;-70
2023/06/15 01:46:25;;;;;;;4.15;1.65;;;17.40;93.10;;;;;;5003194;28;20057;-70
2023/06/15 01:48:53;;;;;;;1.65;1.30;;;17.40;93.20;;;;;;5004164;28;20069;-71
2023/06/15 01:51:20;;;;;;;1.52;1.10;;;17.40;93.10;;;;;;5004291;28;20060;-70
2023/06/15 01:53:46;;;;;;;3.42;1.67;;;17.30;93.10;;;;;;5004897;28;20061;-71
2023/06/15 01:56:13;;;;;;;5.38;1.80;;;17.30;93.20;;;;;;5004612;28;20615;-70
2023/06/15 01:58:39;;;;;;;3.83;1.35;;;17.30;93.20;;;;;;5005049;28;20129;-71
2023/06/15 02:01:05;;;;;;;3.47;1.45;;;17.30;93.20;;;;;;5009092;28;20606;-71
2023/06/15 02:03:31;;;;;;;4.25;1.48;;;17.30;93.30;;;;;;5024375;28;20435;-71
2023/06/15 02:05:57;;;;;;;3.22;1.48;;;17.30;93.40;;;;;;5023938;28;20038;-71
2023/06/15 02:08:22;;;;;;;2.95;1.75;;;17.20;93.30;;;;;;5024893;28;20061;-70
2023/06/15 02:10:48;;;;;;;6.70;1.85;;;17.30;93.40;;;;;;5027062;28;20046;-71
2023/06/15 02:13:13;;;;;;;4.28;1.98;;;17.20;93.40;;;;;;5026878;28;20049;-70
2023/06/15 02:15:39;;;;;;;3.97;1.27;;;17.20;93.50;;;;;;5026515;28;20121;-71
2023/06/15 02:18:12;;;;;;;4.80;1.45;;;17.20;93.50;;;;;;5009343;28;20527;-71
2023/06/15 02:20:42;;;;;;;3.67;1.38;;;17.20;93.60;;;;;;5006508;28;20420;-71
2023/06/15 02:23:08;;;;;;;1.60;1.50;;;17.10;93.70;;;;;;5006762;28;20120;-71
2023/06/15 02:25:33;;;;;;;2.25;1.60;;;17.10;93.60;;;;;;5006848;28;20041;-71
2023/06/15 02:27:59;;;;;;;3.42;1.60;;;17.10;93.70;;;;;;5008771;28;20049;-71
2023/06/15 02:30:26;;;;;;;3.28;1.90;;;17.10;93.80;;;;;;5008489;28;20099;-70
2023/06/15 02:32:53;;;;;;;2.47;1.70;;;17.10;93.90;;;;;;5007890;28;20676;-70
2023/06/15 02:35:20;;;;;;;1.65;1.50;;;17.00;93.90;;;;;;5005884;28;20096;-71
2023/06/15 02:37:46;;;;;;;1.65;1.15;;;17.00;93.80;;;;;;5008387;28;20672;-71
2023/06/15 02:40:12;;;;;;;2.47;1.75;;;17.00;93.90;;;;;;5007788;28;20045;-71
2023/06/15 02:42:38;;;;;;;1.90;1.27;;;17.00;93.90;;;;;;5008175;28;20447;-70
2023/06/15 02:45:06;;;;;;;4.43;1.48;;;17.00;93.90;;;;;;5005895;28;20041;-70
2023/06/15 02:47:33;;;;;;;2.58;1.50;;;17.00;94.00;;;;;;5007397;28;20057;-71
2023/06/15 02:49:59;;;;;;;4.45;1.70;;;17.00;94.00;;;;;;5007205;28;20038;-70
2023/06/15 02:52:30;;;;;;;2.25;1.48;;;17.00;94.10;;;;;;5008081;28;20069;-71
2023/06/15 02:54:56;;;;;;;2.70;2.10;;;16.90;94.10;;;;;;5007149;28;20046;-70
2023/06/15 02:57:23;;;;;;;3.15;1.90;;;16.90;94.20;;;;;;5007318;28;20045;-71
2023/06/15 02:59:49;;;;;;;4.07;1.52;;;16.90;94.30;;;;;;5006832;28;20104;-70
2023/06/15 03:02:15;;;;;;;5.13;1.83;;;16.90;94.40;;;;;;5021590;28;20034;-70
2023/06/15 03:04:47;;;;;;;2.25;1.65;;;16.90;94.40;;;;;;5026831;28;20077;-70
2023/06/15 03:07:16;;;;;;;1.75;1.40;;;16.80;94.40;;;;;;5025728;28;20518;-71
2023/06/15 03:09:47;;;;;;;3.05;1.65;;;16.80;94.50;;;;;;5027469;28;20388;-70
2023/06/15 03:12:13;;;;;;;2.83;2.10;;;16.80;94.70;;;;;;5012855;28;20487;-71
2023/06/15 03:14:39;;;;;;;4.55;2.13;;;16.80;94.60;;;;;;5007609;28;20056;-70
2023/06/15 03:17:09;;;;;;;3.95;2.10;;;16.70;94.70;;;;;;5006866;28;20088;-70
2023/06/15 03:19:36;;;;;;;3.22;1.25;;;16.70;94.80;;;;;;5006183;28;20046;-70
2023/06/15 03:22:02;;;;;;;2.83;2.00;;;16.70;94.80;;;;;;5005496;28;20054;-71
2023/06/15 03:24:30;;;;;;;2.95;1.60;;;16.70;95.30;;;;;;5006383;28;20092;-70
2023/06/15 03:27:01;;;;;;;1.85;1.58;;;16.60;94.90;;;;;;5007086;28;20050;-71
2023/06/15 03:29:31;;;;;;;3.50;1.65;;;16.70;95.00;;;;;;5006290;28;20048;-70
2023/06/15 03:31:57;;;;;;;3.15;1.90;;;16.70;95.00;;;;;;5006128;28;20058;-70
2023/06/15 03:34:25;;;;;;;3.55;1.50;;;16.70;94.90;;;;;;5005641;28;20049;-70
2023/06/15 03:36:51;;;;;;;3.85;2.38;;;16.70;95.30;;;;;;5007017;28;20073;-71
2023/06/15 03:39:18;;;;;;;4.63;2.30;;;16.70;95.00;;;;;;5007222;28;20053;-70
2023/06/15 03:41:44;;;;;;;3.75;1.70;;;16.70;95.00;;;;;;4989150;28;20050;-70
2023/06/15 03:44:11;;;;;;;3.70;2.00;;;16.70;94.90;;;;;;5005334;28;20053;-71
2023/06/15 03:46:36;;;;;;;10.10;2.40;;;16.70;95.00;;;;;;5006900;28;20042;-70
2023/06/15 03:49:02;;;;;;;2.15;1.45;;;16.70;95.00;;;;;;5005464;28;20088;-71
2023/06/15 03:51:27;;;;;;;3.03;2.00;;;16.70;95.00;;;;;;5007193;28;20045;-70
2023/06/15 03:53:53;;;;;;;2.15;1.75;;;16.70;95.00;;;;;;5006718;28;20104;-70
2023/06/15 03:56:19;;;;;;;3.05;1.83;;;16.70;95.00;;;;;;5006180;28;20392;-70
2023/06/15 03:58:44;;;;;;;4.45;2.22;;;16.70;95.00;;;;;;5006828;28;20042;-70
2023/06/15 04:01:12;;;;;;;5.85;2.90;;;16.70;95.00;;;;;;5010679;28;20419;-70
2023/06/15 04:03:39;;;;;;;2.40;1.60;;;16.70;95.00;;;;;;5023673;28;20045;-70
2023/06/15 04:06:05;;;;;;;1.90;1.67;;;16.70;94.90;;;;;;5004641;28;20054;-71
2023/06/15 04:08:37;;;;;;;2.80;2.13;;;16.80;94.90;;;;;;5006489;28;20045;-71
2023/06/15 04:11:03;;;;;;;3.85;1.58;;;16.70;95.00;;;;;;5006032;28;20049;-71
2023/06/15 04:13:29;;;;;;;2.75;2.20;;;16.80;95.00;;;;;;5006943;28;20050;-70
2023/06/15 04:15:55;;;;;;;2.15;1.85;;;16.80;95.00;;;;;;5006468;28;20396;-70
2023/06/15 04:18:21;;;;;;;4.07;1.90;;;16.80;95.00;;;;;;5004266;28;20108;-70
2023/06/15 04:20:47;;;;;;;2.80;1.83;;;16.80;94.90;;;;;;5005224;28;20042;-70
2023/06/15 04:23:12;;;;;;;5.78;1.90;;;16.80;95.00;;;;;;5004372;28;20045;-71
2023/06/15 04:25:40;;;;;;;5.95;2.28;;;16.90;95.00;;;;;;5004819;28;20085;-71
2023/06/15 04:28:10;;;;;;;1.77;1.35;;;16.90;95.00;;;;;;5006003;28;20054;-71
2023/06/15 04:30:49;;;;;;;3.38;2.25;;;16.90;95.00;;;;;;5006084;28;20038;-70
2023/06/15 04:33:15;;;;;;;5.57;2.42;;;16.90;95.00;;;;;;5005533;28;20056;-70
2023/06/15 04:35:45;;;;;;;3.95;1.67;;;16.90;95.00;;;;;;5004940;28;20037;-71
2023/06/15 04:38:13;;;;;;;5.60;2.17;;;16.90;95.10;;;;;;5003708;28;20437;-71
2023/06/15 04:40:41;;;;;;;2.92;2.53;;;16.90;95.00;;;;;;5011253;28;20049;-70
2023/06/15 04:43:08;;;;;;;2.70;1.70;;;17.00;95.00;;;;;;5003900;28;20317;-71
2023/06/15 04:45:36;;;;;;;2.55;1.80;;;16.90;95.00;;;;;;5003865;28;20046;-71
2023/06/15 04:48:02;;;;;;;4.88;1.95;;;17.00;95.00;;;;;;5004465;28;20433;-71
2023/06/15 04:50:30;;;;;;;3.95;2.03;;;17.00;95.00;;;;;;5004849;28;20128;-72
2023/06/15 04:52:56;;;;;;;3.30;2.22;;;17.10;95.00;;;;;;5004085;28;20053;-71
2023/06/15 04:55:21;;;;;;;3.83;1.92;;;17.10;95.00;;;;;;5004103;28;20045;-71
2023/06/15 04:57:47;;;;;;;3.15;1.95;;;17.10;95.00;;;;;;5008955;28;20129;-71
2023/06/15 05:00:13;;;;;;;5.93;1.95;;;17.10;95.00;;;;;;5005259;28;20037;-71
2023/06/15 05:02:39;;;;;;;5.38;2.15;;;17.10;95.10;;;;;;5018592;28;20499;-71
2023/06/15 05:05:05;;;;;;;3.38;1.77;;;17.10;95.00;;;;;;5002642;28;20052;-71
2023/06/15 05:07:30;;;;;;;3.20;1.83;;;17.20;95.00;;;;;;5003954;28;20554;-74
2023/06/15 05:09:56;;;;;;;2.75;1.50;;;17.20;95.00;;;;;;5009568;28;20037;-72
2023/06/15 05:12:22;;;;;;;2.53;1.90;;;17.20;95.00;;;;;;5003833;28;20037;-72
2023/06/15 05:14:47;;;;;;;3.00;1.75;;;17.30;95.00;;;;;;5008504;28;20140;-72
2023/06/15 05:17:13;;;;;;;2.22;1.73;;;17.30;95.00;;;;;;5023685;28;20056;-72
2023/06/15 05:19:39;;;;;;;3.92;1.85;;;17.30;95.00;;;;;;5022848;28;20056;-73
2023/06/15 05:22:06;;;;;;;4.72;1.88;;;17.30;94.90;;;;;;4988865;28;20080;-72
2023/06/15 05:24:32;;;;;;;2.72;1.67;;;17.40;94.90;;;;;;5000419;28;20046;-72
2023/06/15 05:26:57;;;;;;;5.28;1.95;;;17.40;94.90;;;;;;5004560;28;20096;-71
2023/06/15 05:29:23;;;;;;;2.65;1.60;;;17.40;94.90;;;;;;5001819;28;20076;-71
2023/06/15 05:31:49;;;;;;;6.03;1.98;;;17.50;94.80;;;;;;5004357;28;20045;-71
2023/06/15 05:34:15;;;;;;;2.38;1.73;;;17.50;94.80;;;;;;5003474;28;20081;-71
2023/06/15 05:36:40;;;;;;;2.92;2.08;;;17.50;94.80;;;;;;4998650;28;20038;-71
2023/06/15 05:39:06;;;;;;;5.95;2.15;;;17.60;94.80;;;;;;4997168;28;20038;-71
2023/06/15 05:41:32;;;;;;;3.53;1.60;;;17.60;94.80;;;;;;5004236;28;20512;-71
2023/06/15 05:43:59;;;;;;;5.55;1.95;;;17.60;94.80;;;;;;4988300;28;20408;-71
2023/06/15 05:46:25;;;;;;;3.50;2.17;;;17.70;94.90;;;;;;5008482;28;20049;-70
2023/06/15 05:48:50;;;;;;;2.22;1.60;;;17.70;94.90;;;;;;5005210;28;20034;-71
2023/06/15 05:51:16;;;;;;;3.35;1.88;;;17.70;94.90;;;;;;5006384;28;20397;-70
2023/06/15 05:53:42;;;;;;;3.25;2.08;;;17.70;94.80;;;;;;5007016;28;20038;-71
2023/06/15 05:56:08;;;;;;;5.13;2.08;;;17.80;94.90;;;;;;5004529;28;20050;-71
2023/06/15 05:58:34;;;;;;;4.38;2.30;;;17.80;94.90;;;;;;5000195;28;20095;-71
2023/06/15 06:00:59;;;;;;;4.60;2.40;;;17.90;94.90;;;;;;5010733;28;20068;-71
2023/06/15 06:03:25;;;;;;;3.42;2.22;;;17.90;95.10;;;;;;5006332;28;20488;-71
2023/06/15 06:05:51;;;;;;;4.72;2.08;;;17.90;95.10;;;;;;5008184;28;20042;-71
2023/06/15 06:08:18;;;;;;;2.95;1.85;;;17.90;95.00;;;;;;5005907;28;20559;-72
2023/06/15 06:10:44;;;;;;;2.97;2.08;;;18.00;95.10;;;;;;5006980;28;20053;-72
2023/06/15 06:13:10;;;;;;;3.78;1.70;;;18.00;95.10;;;;;;5005198;28;20045;-72
2023/06/15 06:15:35;;;;;;;5.00;2.20;;;18.00;95.00;;;;;;5006124;28;20044;-72
2023/06/15 06:18:02;;;;;;;2.97;2.35;;;18.10;95.00;;;;;;4999432;28;20226;-72
2023/06/15 06:20:27;;;;;;;4.18;1.90;;;18.10;94.90;;;;;;5000019;28;20053;-71
2023/06/15 06:22:53;;;;;;;2.75;1.83;;;18.20;94.90;;;;;;5007413;28;20506;-71
2023/06/15 06:25:19;;;;;;;3.60;1.98;;;18.30;95.00;;;;;;5006868;28;20238;-70
2023/06/15 06:27:44;;;;;;;2.78;1.75;;;18.30;94.90;;;;;;5002321;28;20065;-70
2023/06/15 06:30:10;;;;;;;2.22;1.80;;;18.40;95.00;;;;;;5019606;28;20076;-71
2023/06/15 06:32:36;;;;;;;3.63;2.20;;;18.40;95.00;;;;;;5008008;28;20050;-69
2023/06/15 06:35:03;;;;;;;2.08;1.40;;;18.40;94.90;;;;;;5014102;28;20045;-71
2023/06/15 06:37:28;;;;;;;2.38;1.75;;;18.50;94.90;;;;;;5008645;28;20048;-71
2023/06/15 06:39:54;;;;;;;3.85;2.00;;;18.50;94.80;;;;;;5008046;28;20049;-71
2023/06/15 06:42:19;;;;;;;4.65;2.00;;;18.60;94.90;;;;;;5003056;28;20075;-71
2023/06/15 06:44:45;;;;;;;4.28;2.40;;;18.60;94.90;;;;;;5007484;28;20067;-71
2023/06/15 06:47:11;;;;;;;2.95;1.92;;;18.70;94.80;;;;;;5003525;28;20046;-71
2023/06/15 06:49:36;;;;;;;3.42;1.73;;;18.70;94.90;;;;;;5000133;28;20069;-70
2023/06/15 06:52:03;;;;;;;3.00;1.88;;;18.70;94.80;;;;;;5007522;28;20045;-69
2023/06/15 06:54:28;;;;;;;2.78;1.60;;;18.80;94.80;;;;;;5007257;28;20049;-70
2023/06/15 06:56:54;;;;;;;2.60;2.22;;;18.80;95.00;;;;;;5002978;28;20038;-70
2023/06/15 06:59:19;;;;;;;3.72;1.90;;;18.90;94.70;;;;;;5005856;28;20562;-70
2023/06/15 07:01:45;;;;;;;3.03;1.73;;;18.90;94.70;;;;;;5005639;28;20169;-70
2023/06/15 07:04:10;;;;;;;3.30;1.98;;;18.90;94.60;;;;;;4999143;28;20068;-70
2023/06/15 07:06:36;;;;;;;5.00;1.83;;;19.00;94.60;;;;;;4998203;28;20054;-70
2023/06/15 07:09:02;;;;;;;2.40;1.80;;;19.00;94.60;;;;;;5004322;28;20054;-71
2023/06/15 07:11:27;;;;;;;3.50;1.77;;;19.00;94.50;;;;;;5011656;28;20385;-70
2023/06/15 07:13:53;;;;;;;3.38;1.38;;;19.10;94.60;;;;;;5004866;28;20061;-70
2023/06/15 07:16:19;;;;;;;2.22;1.58;;;19.10;94.40;;;;;;5005781;28;20080;-70
2023/06/15 07:18:44;;;;;;;3.50;1.70;;;19.10;94.30;;;;;;5004450;28;20042;-71
2023/06/15 07:21:10;;;;;;;3.45;1.67;;;19.20;94.40;;;;;;5003860;28;20117;-70
2023/06/15 07:23:36;;;;;;;3.30;2.17;;;19.20;94.20;;;;;;5005220;28;20117;-70
2023/06/15 07:26:01;;;;;;;3.83;1.58;;;19.30;94.10;;;;;;5003735;28;20046;-71
2023/06/15 07:28:27;;;;;;;2.20;1.40;;;19.30;94.10;;;;;;5004371;28;20423;-70
2023/06/15 07:30:52;;;;;;;2.28;1.40;;;19.30;94.00;;;;;;5004863;28;20475;-70
2023/06/15 07:33:18;;;;;;;2.55;1.67;;;19.30;94.00;;;;;;5002656;28;20038;-70
2023/06/15 07:35:44;;;;;;;3.15;1.70;;;19.40;93.90;;;;;;5005440;28;20129;-70
2023/06/15 07:38:10;;;;;;;3.40;1.48;;;19.40;93.90;;;;;;5005177;28;20045;-70
2023/06/15 07:40:36;;;;;;;3.10;1.42;;;19.50;93.70;;;;;;5005800;28;20082;-70
2023/06/15 07:43:02;;;;;;;6.15;1.40;;;19.50;93.70;;;;;;5004078;28;20054;-70
2023/06/15 07:45:28;;;;;;;3.33;1.77;;;19.50;93.50;;;;;;5005674;28;20034;-70
2023/06/15 07:47:53;;;;;;;2.30;1.65;;;19.50;93.40;;;;;;5004757;28;20487;-70
2023/06/15 07:50:19;;;;;;;4.10;1.42;;;19.60;93.50;;;;;;5005258;28;20069;-70
2023/06/15 07:52:45;;;;;;;3.13;1.42;;;19.60;93.40;;;;;;5005937;28;20041;-70
2023/06/15 07:55:10;;;;;;;3.67;1.50;;;19.60;93.30;;;;;;5003768;28;20388;-70
2023/06/15 07:57:36;;;;;;;2.08;1.30;;;19.70;93.20;;;;;;4987451;28;20326;-70
2023/06/15 08:00:04;;;;;;;2.58;1.60;;;19.70;93.20;;;;;;4987549;28;20384;-71
2023/06/15 08:02:30;;;;;;;1.80;1.63;;;19.80;93.00;;;;;;5021490;28;20068;-70
2023/06/15 08:04:56;;;;;;;4.55;1.30;;;19.80;93.00;;;;;;5023291;28;20053;-70
2023/06/15 08:07:21;;;;;;;3.50;1.50;;;19.80;93.00;;;;;;5023864;28;20060;-70
2023/06/15 08:09:47;;;;;;;4.00;1.58;;;19.80;93.00;;;;;;5024419;28;20080;-70
2023/06/15 08:12:13;;;;;;;3.35;1.23;;;19.90;93.00;;;;;;5024334;28;20128;-70
2023/06/15 08:14:38;;;;;;;2.83;1.65;;;19.90;92.90;;;;;;5023519;28;20061;-70
2023/06/15 08:17:04;;;;;;;2.80;1.83;;;20.00;92.70;;;;;;5023250;28;20099;-71
2023/06/15 08:19:30;;;;;;;3.53;1.58;;;20.00;92.80;;;;;;5024034;28;20051;-71
2023/06/15 08:21:56;;;;;;;2.38;1.55;;;20.10;92.70;;;;;;5023417;28;20041;-70
2023/06/15 08:24:22;;;;;;;4.80;1.55;;;20.10;92.70;;;;;;5022792;28;20407;-70
2023/06/15 08:26:48;;;;;;;3.45;1.42;;;20.10;92.30;;;;;;5023169;28;20049;-70
2023/06/15 08:29:14;;;;;;;3.63;1.35;;;20.20;92.10;;;;;;5024307;28;20115;-70
2023/06/15 08:31:40;;;;;;;2.33;1.75;;;20.20;91.80;;;;;;5023489;28;20046;-71
2023/06/15 08:34:09;;;;;;;1.85;1.30;;;20.20;91.80;;;;;;5023105;28;20398;-70
2023/06/15 08:36:36;;;;;;;3.13;2.08;;;20.30;91.70;;;;;;5024651;28;20037;-70
2023/06/15 08:39:01;;;;;;;2.75;1.50;;;20.30;91.70;;;;;;5023599;28;20530;-70
2023/06/15 08:41:27;;;;;;;1.85;1.30;;;20.40;91.40;;;;;;5024546;28;20127;-70
2023/06/15 08:43:53;;;;;;;4.30;1.63;;;20.30;91.40;;;;;;5024462;28;20129;-70
2023/06/15 08:46:20;;;;;;;1.58;1.10;;;20.40;91.10;;;;;;5024019;28;20045;-70
2023/06/15 08:48:50;;;;;;;4.50;2.00;;;20.50;90.90;;;;;;5023659;28;20081;-70
2023/06/15 08:51:15;;;;;;;3.10;1.50;;;20.50;90.80;;;;;;5022601;28;20491;-70
2023/06/15 08:53:43;;;;;;;4.63;1.48;;;20.50;90.90;;;;;;5022985;28;20157;-71
2023/06/15 08:56:11;;;;;;;3.03;1.42;;;20.50;90.80;;;;;;5023465;28;20052;-70
2023/06/15 08:58:37;;;;;;;1.33;1.00;;;20.50;90.90;;;;;;5023993;28;20442;-70
2023/06/15 09:01:04;;;;;;;1.90;1.52;;;20.50;90.90;;;;;;5017962;28;20049;-70
2023/06/15 09:03:31;;;;;;;2.55;1.05;;;20.60;90.80;;;;;;5002318;28;20064;-71
2023/06/15 09:05:57;;;;;;;2.83;1.30;;;20.60;90.60;;;;;;5002905;28;20079;-70
2023/06/15 09:08:23;;;;;;;1.80;1.35;;;20.60;90.60;;;;;;5004307;28;20456;-70
2023/06/15 09:10:49;;;;;;;1.67;1.38;;;20.70;90.60;;;;;;5002773;28;20145;-70
2023/06/15 09:13:18;;;;;;;1.42;1.17;;;20.70;90.40;;;;;;5003684;28;20140;-70
2023/06/15 09:15:50;;;;;;;1.98;1.60;;;20.70;90.40;;;;;;5004039;28;20131;-70
2023/06/15 09:18:16;;;;;;;2.42;1.17;;;20.80;90.40;;;;;;5002764;28;20050;-70
2023/06/15 09:20:42;;;;;;;1.83;1.15;;;20.80;90.30;;;;;;5003694;28;20042;-70
2023/06/15 09:23:11;;;;;;;2.85;1.30;;;20.90;90.20;;;;;;5003636;28;20042;-70
2023/06/15 09:25:37;;;;;;;2.20;1.67;;;20.90;89.90;;;;;;5002285;28;20121;-70
2023/06/15 09:28:05;;;;;;;1.70;1.42;;;21.00;89.90;;;;;;5003650;28;20053;-71
2023/06/15 09:30:38;;;;;;;1.98;1.20;;;21.00;89.20;;;;;;5002626;28;20042;-71
2023/06/15 09:33:15;;;;;;;3.70;1.52;;;21.00;89.20;;;;;;5001301;28;20467;-70
2023/06/15 09:36:00;;;;;;;2.80;1.50;;;21.00;86.80;;;;;;5003816;28;20038;-70
2023/06/15 09:38:40;;;;;;;3.83;1.63;;;21.00;84.90;;;;;;5003037;28;20054;-70
2023/06/15 09:41:07;;;;;;;3.50;1.80;;;21.00;88.40;;;;;;5002041;28;20121;-70
2023/06/15 09:43:38;;;;;;;2.92;1.38;;;21.00;89.20;;;;;;5002256;28;20093;-70
2023/06/15 09:46:12;;;;;;;1.92;1.58;;;21.10;87.90;;;;;;5002276;28;20120;-70
2023/06/15 09:48:44;;;;;;;3.38;1.70;;;21.20;86.20;;;;;;5002826;28;20049;-70
2023/06/15 09:51:10;;;;;;;1.73;1.23;;;21.20;87.00;;;;;;5003303;28;20069;-70
2023/06/15 09:53:37;;;;;;;3.28;1.40;;;21.20;87.70;;;;;;5003711;28;20038;-71
2023/06/15 09:56:02;;;;;;;2.95;1.40;;;21.20;88.00;;;;;;5003862;28;20049;-70
2023/06/15 09:58:28;;;;;;;1.75;1.38;;;21.30;88.00;;;;;;5003072;28;20396;-70
2023/06/15 10:00:57;;;;;;;2.22;1.15;;;21.20;87.70;;;;;;5005446;28;20546;-70
2023/06/15 10:03:24;;;;;;;1.65;1.30;;;21.20;87.20;;;;;;5020921;28;20099;-70
2023/06/15 10:05:54;;;;;;;1.92;1.50;;;21.30;87.20;;;;;;5023255;28;20053;-70
2023/06/15 10:08:24;;;;;;;3.28;1.83;;;21.30;86.90;;;;;;5022410;28;20067;-70
2023/06/15 10:10:51;;;;;;;3.33;1.70;;;21.40;86.60;;;;;;5023242;28;20092;-70
2023/06/15 10:13:26;;;;;;;3.60;2.03;;;21.40;86.90;;;;;;5022668;28;20080;-70
2023/06/15 10:15:55;;;;;;;2.78;1.63;;;21.40;86.20;;;;;;5023551;28;20045;-70
2023/06/15 10:18:22;;;;;;;2.00;1.70;;;21.40;86.30;;;;;;5022310;28;20380;-70
2023/06/15 10:20:52;;;;;;;1.67;1.33;;;21.40;86.70;;;;;;5023119;28;20038;-70
2023/06/15 10:23:22;;;;;;;2.35;1.10;;;21.40;86.70;;;;;;5021901;28;20553;-70
2023/06/15 10:25:48;;;;;;;1.92;1.50;;;21.40;86.50;;;;;;5022042;28;20078;-70
2023/06/15 10:28:16;;;;;;;2.53;1.50;;;21.40;86.40;;;;;;5021538;28;20183;-70
2023/06/15 10:31:05;;;;;;;1.95;1.17;;;21.40;86.50;;;;;;5024433;28;20050;-70
2023/06/15 10:33:40;;;;;;;1.92;1.30;;;21.50;83.70;;;;;;5024564;28;20045;-71
2023/06/15 10:36:18;;;;;;;2.65;1.33;;;21.60;84.90;;;;;;5026209;28;20322;-70
2023/06/15 10:39:03;;;;;;;2.20;2.00;;;21.60;84.80;;;;;;5026737;28;20120;-70
2023/06/15 10:41:29;;;;;;;2.08;1.88;;;21.60;84.80;;;;;;5025325;28;20057;-70
2023/06/15 10:43:59;;;;;;;2.75;1.30;;;21.60;86.50;;;;;;5027491;28;20034;-70
2023/06/15 10:46:27;;;;;;;2.78;1.58;;;21.60;85.60;;;;;;4995325;28;20088;-70
2023/06/15 10:48:53;;;;;;;1.75;1.63;;;21.70;86.20;;;;;;5002526;28;20479;-69
2023/06/15 10:51:21;;;;;;;4.82;1.45;;;21.70;86.20;;;;;;5001708;28;20054;-69
2023/06/15 10:53:47;;;;;;;1.60;1.50;;;21.80;85.80;;;;;;4986522;28;20046;-69
2023/06/15 10:56:19;;;;;;;2.20;1.35;;;21.80;85.80;;;;;;4988841;28;20160;-69
2023/06/15 10:58:50;;;;;;;;;;;21.80;84.20;;;;;;4989774;28;20046;-69
2023/06/15 11:01:26;;;;;;;4.88;1.50;;;21.80;78.20;;;;;;5013124;28;19925;-69
2023/06/15 11:03:56;;;;;;;1.92;1.67;;;21.80;84.80;;;;;;5026139;28;20041;-69
2023/06/15 11:06:31;;;;;;;3.80;1.90;;;21.90;85.30;;;;;;5019074;28;20050;-69
2023/06/15 11:09:07;;;;;;;2.15;1.40;;;21.90;84.00;;;;;;5007619;28;20484;-69
2023/06/15 11:11:35;;;;;;;3.80;1.42;;;22.00;84.60;;;;;;5004054;28;20037;-69
2023/06/15 11:14:03;;;;;;;2.35;1.77;;;22.00;84.70;;;;;;4999531;28;20046;-70
2023/06/15 11:16:36;;;;;;;2.25;1.73;;;22.10;83.30;;;;;;5002127;28;20042;-69
2023/06/15 11:19:11;;;;;;;1.35;1.00;;;22.10;81.80;;;;;;5005528;28;20034;-69
2023/06/15 11:21:47;;;;;;;2.55;1.52;;;22.10;81.00;;;;;;5006251;28;20038;-69
2023/06/15 11:24:15;;;;;;;3.08;1.30;;;22.10;83.70;;;;;;5006153;28;20046;-69
2023/06/15 11:26:42;;;;;;;2.42;1.33;;;22.10;83.60;;;;;;5006036;28;20073;-70
2023/06/15 11:29:12;;;;;;;3.92;1.58;;;22.10;83.70;;;;;;5005840;28;20030;-69
2023/06/15 11:31:40;;;;;;;3.22;1.52;;;22.10;83.70;;;;;;4987951;28;20687;-70
2023/06/15 11:34:09;;;;;;;2.05;1.35;;;22.10;82.80;;;;;;5004046;28;20470;-69
2023/06/15 11:36:36;;;;;;;2.35;1.45;;;22.10;82.60;;;;;;4988578;28;20046;-69
2023/06/15 11:39:04;;;;;;;2.80;1.80;;;22.10;82.80;;;;;;4986863;28;20050;-70
2023/06/15 11:41:30;;;;;;;1.80;1.30;;;22.10;82.80;;;;;;4985827;28;20576;-70
2023/06/15 11:43:57;;;;;;;2.80;1.50;;;22.00;82.60;;;;;;5001527;28;20045;-69
2023/06/15 11:46:25;;;;;;;1.60;1.33;;;22.10;82.80;;;;;;5005922;28;20038;-70
2023/06/15 11:48:58;;;;;;;2.42;1.73;;;22.20;81.60;;;;;;5002816;28;20366;-68
2023/06/15 11:51:25;;;;;;;1.60;1.50;;;22.20;77.40;;;;;;5000839;28;20037;-69
2023/06/15 11:53:52;;;;;;;2.08;1.65;;;22.20;81.90;;;;;;5006213;28;20061;-68
2023/06/15 11:56:18;;;;;;;2.17;1.40;;;22.30;81.50;;;;;;5005931;28;20045;-68
2023/06/15 11:58:48;;;;;;;5.03;1.40;;;22.20;81.90;;;;;;4998864;28;20034;-82
2023/06/15 12:01:15;;;;;;;2.90;2.05;;;22.30;80.40;;;;;;5007671;28;20145;-69
2023/06/15 12:03:45;;;;;;;2.10;1.33;;;22.30;81.70;;;;;;5024271;28;20107;-69
2023/06/15 12:06:15;;;;;;;1.73;1.30;;;22.30;80.10;;;;;;5024430;28;20037;-69
2023/06/15 12:08:42;;;;;;;1.67;1.20;;;22.40;80.90;;;;;;5024838;28;20075;-69
2023/06/15 12:11:07;;;;;;;1.80;1.20;;;22.40;81.70;;;;;;5024867;28;20125;-69
2023/06/15 12:13:37;;;;;;;3.28;1.95;;;22.50;81.40;;;;;;5024426;28;20211;-69
2023/06/15 12:16:03;;;;;;;2.55;1.10;;;22.50;80.00;;;;;;5023085;28;20088;-69
2023/06/15 12:18:29;;;;;;;1.85;1.40;;;22.50;81.20;;;;;;5024302;28;20073;-68
2023/06/15 12:20:54;;;;;;;1.92;1.33;;;22.60;81.00;;;;;;5020880;28;20038;-69
2023/06/15 12:23:30;;;;;;;1.45;1.20;;;22.60;80.50;;;;;;4995061;28;20046;-69
2023/06/15 12:25:57;;;;;;;1.75;1.42;;;22.70;79.00;;;;;;4986088;28;20122;-69
2023/06/15 12:28:25;;;;;;;2.65;1.67;;;22.70;80.30;;;;;;4982917;28;20045;-69
2023/06/15 12:30:51;;;;;;;3.60;1.45;;;22.70;80.10;;;;;;5004588;28;20053;-69
2023/06/15 12:33:25;;;;;;;2.85;1.50;;;22.70;80.40;;;;;;5002632;28;20056;-69
2023/06/15 12:35:52;;;;;;;6.05;1.35;;;22.70;79.10;;;;;;5003812;28;20136;-69
2023/06/15 12:38:19;;;;;;;2.10;1.50;;;22.70;80.30;;;;;;5004709;28;20117;-69
2023/06/15 12:40:45;;;;;;;2.85;1.48;;;22.80;80.20;;;;;;4986902;28;20038;-86
2023/06/15 12:43:10;;;;;;;4.13;1.42;;;22.80;80.30;;;;;;5000292;28;20443;-82
2023/06/15 12:45:36;;;;;;;1.55;1.40;;;22.80;80.50;;;;;;5002815;28;20038;-80
2023/06/15 12:48:04;;;;;;;1.45;1.35;;;22.80;80.70;;;;;;5002409;28;20049;-77